Time,TemperatureF,DewpointF,PressureIn,WindDirection,WindDirectionDegrees,WindSpeedMPH,WindSpeedGustMPH,Humidity,HourlyPrecipIn,Conditions,Clouds,dailyrainin,SoftwareType,DateUTC
2013-06-10 00:05:00,70.2,47.0,29.55,West,276,3.0,7.0,44,0.00,,,0.00,weatherlink.com 1.10,2013-06-10 06:05:00,
2013-06-10 00:20:00,70.8,46.0,29.54,SSW,207,2.0,14.0,42,0.00,,,0.00,weatherlink.com 1.10,2013-06-10 06:20:00,
2013-06-10 00:35:00,69.3,46.0,29.56,North,360,15.0,24.0,44,0.00,,,0.00,weatherlink.com 1.10,2013-06-10 06:35:00,
2013-06-10 00:50:00,71.7,46.0,29.55,NW,313,20.0,30.0,40,0.00,,,0.00,weatherlink.com 1.10,2013-06-10 06:50:00,
2013-06-10 01:05:00,72.1,42.0,29.57,North,360,12.0,20.0,34,0.00,,,0.00,weatherlink.com 1.10,2013-06-10 07:05:00,
2013-06-10 01:20:00,71.0,40.0,29.57,NNE,24,7.0,22.0,33,0.00,,,0.00,weatherlink.com 1.10,2013-06-10 07:20:00,
2013-06-10 01:35:00,69.9,40.0,29.58,North,355,9.0,18.0,34,0.00,,,0.00,weatherlink.com 1.10,2013-06-10 07:35:00,
2013-06-10 01:50:00,68.9,40.0,29.58,NNW,337,11.0,16.0,35,0.00,,,0.00,weatherlink.com 1.10,2013-06-10 07:50:00,
2013-06-10 02:05:00,68.3,39.0,29.58,NNE,14,12.0,18.0,34,0.00,,,0.00,weatherlink.com 1.10,2013-06-10 08:05:00,
2013-06-10 02:20:00,67.2,39.0,29.60,NE,39,7.0,15.0,36,0.00,,,0.00,weatherlink.com 1.10,2013-06-10 08:20:00,
2013-06-10 02:35:00,65.6,40.0,29.59,North,5,16.0,23.0,39,0.00,,,0.00,weatherlink.com 1.10,2013-06-10 08:35:00,
2013-06-10 02:50:00,64.4,40.0,29.60,NNE,24,9.0,16.0,41,0.00,,,0.00,weatherlink.com 1.10,2013-06-10 08:50:00,
2013-06-10 03:05:00,63.4,40.0,29.60,NNE,28,12.0,14.0,43,0.00,,,0.00,weatherlink.com 1.10,2013-06-10 09:05:00,
2013-06-10 03:20:00,62.3,40.0,29.60,NNE,16,11.0,19.0,44,0.00,,,0.00,weatherlink.com 1.10,2013-06-10 09:20:00,
2013-06-10 03:35:00,61.4,39.0,29.61,NNE,28,9.0,14.0,44,0.00,,,0.00,weatherlink.com 1.10,2013-06-10 09:35:00,
2013-06-10 03:50:00,61.1,39.0,29.61,NNE,20,9.0,15.0,45,0.00,,,0.00,weatherlink.com 1.10,2013-06-10 09:50:00,
2013-06-10 04:05:00,61.8,40.0,29.61,NW,325,3.0,11.0,45,0.00,,,0.00,weatherlink.com 1.10,2013-06-10 10:05:00,
2013-06-10 04:20:00,62.0,40.0,29.61,WNW,286,10.0,15.0,45,0.00,,,0.00,weatherlink.com 1.10,2013-06-10 10:20:00,
2013-06-10 04:35:00,60.4,40.0,29.62,NW,307,7.0,12.0,48,0.00,,,0.00,weatherlink.com 1.10,2013-06-10 10:35:00,
2013-06-10 04:50:00,58.9,41.0,29.62,West,280,9.0,11.0,51,0.00,,,0.00,weatherlink.com 1.10,2013-06-10 10:50:00,
2013-06-10 05:05:00,59.4,41.0,29.62,West,278,4.0,8.0,50,0.00,,,0.00,weatherlink.com 1.10,2013-06-10 11:05:00,
2013-06-10 05:20:00,59.7,40.0,29.62,West,278,4.0,8.0,49,0.00,,,0.00,weatherlink.com 1.10,2013-06-10 11:20:00,
2013-06-10 05:35:00,57.9,40.0,29.62,West,278,3.0,7.0,52,0.00,,,0.00,weatherlink.com 1.10,2013-06-10 11:35:00,
2013-06-10 05:50:00,58.9,41.0,29.63,West,278,5.0,7.0,51,0.00,,,0.00,weatherlink.com 1.10,2013-06-10 11:50:00,
2013-06-10 06:05:00,58.6,41.0,29.64,West,278,4.0,6.0,52,0.00,,,0.00,weatherlink.com 1.10,2013-06-10 12:05:00,
2013-06-10 06:20:00,59.0,41.0,29.64,West,278,1.0,4.0,52,0.00,,,0.00,weatherlink.com 1.10,2013-06-10 12:20:00,
2013-06-10 06:35:00,59.5,41.0,29.64,West,278,2.0,6.0,51,0.00,,,0.00,weatherlink.com 1.10,2013-06-10 12:35:00,
2013-06-10 06:50:00,60.2,41.0,29.64,West,278,4.0,5.0,50,0.00,,,0.00,weatherlink.com 1.10,2013-06-10 12:50:00,
2013-06-10 07:05:00,60.0,42.0,29.64,West,278,6.0,8.0,52,0.00,,,0.00,weatherlink.com 1.10,2013-06-10 13:05:00,
2013-06-10 07:20:00,60.5,43.0,29.64,West,278,8.0,9.0,53,0.00,,,0.00,weatherlink.com 1.10,2013-06-10 13:20:00,
2013-06-10 07:35:00,61.6,43.0,29.64,West,278,5.0,9.0,51,0.00,,,0.00,weatherlink.com 1.10,2013-06-10 13:35:00,
2013-06-10 07:51:00,62.7,43.0,29.64,West,278,6.0,8.0,48,0.00,,,0.00,weatherlink.com 1.10,2013-06-10 13:51:00,
2013-06-10 08:06:00,63.8,42.0,29.64,West,278,7.0,8.0,46,0.00,,,0.00,weatherlink.com 1.10,2013-06-10 14:06:00,
2013-06-10 08:21:00,64.1,42.0,29.64,West,278,2.0,7.0,45,0.00,,,0.00,weatherlink.com 1.10,2013-06-10 14:21:00,
2013-06-10 08:36:00,65.0,42.0,29.64,West,278,2.0,6.0,44,0.00,,,0.00,weatherlink.com 1.10,2013-06-10 14:36:00,
2013-06-10 08:51:00,65.8,43.0,29.64,West,278,3.0,5.0,43,0.00,,,0.00,weatherlink.com 1.10,2013-06-10 14:51:00,
2013-06-10 09:06:00,67.0,43.0,29.64,West,278,0.0,2.0,42,0.00,,,0.00,weatherlink.com 1.10,2013-06-10 15:06:00,
2013-06-10 09:51:00,68.6,44.0,29.63,North,355,0.0,10.0,42,0.00,,,0.00,weatherlink.com 1.10,2013-06-10 15:51:00,
2013-06-10 10:21:00,69.9,46.0,29.64,North,355,5.0,5.0,43,0.00,,,0.00,weatherlink.com 1.10,2013-06-10 16:21:00,
2013-06-10 10:51:00,69.0,45.0,29.62,North,355,4.0,5.0,42,0.00,,,0.00,weatherlink.com 1.10,2013-06-10 16:51:00,
2013-06-10 11:06:00,70.6,42.0,29.61,East,90,6.0,10.0,36,0.00,,,0.00,weatherlink.com 1.10,2013-06-10 17:06:00,
2013-06-10 11:21:00,72.0,36.0,29.61,ENE,70,5.0,11.0,27,0.00,,,0.00,weatherlink.com 1.10,2013-06-10 17:21:00,
2013-06-10 11:36:00,72.3,35.0,29.60,NE,38,6.0,13.0,25,0.00,,,0.00,weatherlink.com 1.10,2013-06-10 17:36:00,
2013-06-10 11:52:00,72.7,39.0,29.60,NE,52,6.0,11.0,30,0.00,,,0.00,weatherlink.com 1.10,2013-06-10 17:52:00,
2013-06-10 12:06:00,72.8,38.0,29.59,East,80,6.0,11.0,28,0.00,,,0.00,weatherlink.com 1.10,2013-06-10 18:06:00,
2013-06-10 12:21:00,73.8,38.0,29.60,ENE,59,4.0,10.0,27,0.00,,,0.00,weatherlink.com 1.10,2013-06-10 18:21:00,
2013-06-10 12:36:00,73.7,38.0,29.60,NE,55,9.0,11.0,27,0.00,,,0.00,weatherlink.com 1.10,2013-06-10 18:36:00,
2013-06-10 12:51:00,74.1,39.0,29.60,NE,37,6.0,12.0,28,0.00,,,0.00,weatherlink.com 1.10,2013-06-10 18:51:00,
2013-06-10 13:06:00,74.8,40.0,29.59,NNE,16,4.0,12.0,28,0.00,,,0.00,weatherlink.com 1.10,2013-06-10 19:06:00,
2013-06-10 13:21:00,75.2,41.0,29.59,NNE,19,9.0,11.0,29,0.00,,,0.00,weatherlink.com 1.10,2013-06-10 19:21:00,
2013-06-10 13:36:00,75.5,40.0,29.59,NNE,17,4.0,11.0,28,0.00,,,0.00,weatherlink.com 1.10,2013-06-10 19:36:00,
2013-06-10 13:51:00,75.6,41.0,29.58,NNE,23,5.0,12.0,29,0.00,,,0.00,weatherlink.com 1.10,2013-06-10 19:51:00,
2013-06-10 14:06:00,76.1,42.0,29.58,NNE,31,12.0,14.0,30,0.00,,,0.00,weatherlink.com 1.10,2013-06-10 20:06:00,
2013-06-10 14:21:00,76.5,44.0,29.57,ENE,75,7.0,12.0,32,0.00,,,0.00,weatherlink.com 1.10,2013-06-10 20:21:00,
2013-06-10 14:36:00,75.8,44.0,29.57,NE,46,4.0,12.0,32,0.00,,,0.00,weatherlink.com 1.10,2013-06-10 20:36:00,
2013-06-10 14:51:00,76.4,44.0,29.57,NNE,32,4.0,11.0,31,0.00,,,0.00,weatherlink.com 1.10,2013-06-10 20:51:00,
2013-06-10 15:07:00,76.0,45.0,29.56,NNE,32,6.0,13.0,33,0.00,,,0.00,weatherlink.com 1.10,2013-06-10 21:07:00,
2013-06-10 15:22:00,77.8,45.0,29.56,NNE,32,7.0,9.0,31,0.00,,,0.00,weatherlink.com 1.10,2013-06-10 21:22:00,
2013-06-10 15:37:00,77.4,46.0,29.55,NE,36,8.0,11.0,33,0.00,,,0.00,weatherlink.com 1.10,2013-06-10 21:37:00,
2013-06-10 15:52:00,78.2,44.0,29.54,NE,40,4.0,9.0,30,0.00,,,0.00,weatherlink.com 1.10,2013-06-10 21:52:00,
2013-06-10 16:07:00,77.6,45.0,29.54,NNE,26,7.0,14.0,32,0.00,,,0.00,weatherlink.com 1.10,2013-06-10 22:07:00,
2013-06-10 16:22:00,76.6,47.0,29.53,NNE,32,12.0,17.0,35,0.00,,,0.00,weatherlink.com 1.10,2013-06-10 22:22:00,
2013-06-10 16:37:00,76.3,47.0,29.53,NNE,16,12.0,16.0,36,0.00,,,0.00,weatherlink.com 1.10,2013-06-10 22:37:00,
2013-06-10 16:52:00,76.2,47.0,29.52,NNE,21,9.0,15.0,35,0.00,,,0.00,weatherlink.com 1.10,2013-06-10 22:52:00,
2013-06-10 17:07:00,76.1,47.0,29.53,NNE,20,7.0,15.0,36,0.00,,,0.00,weatherlink.com 1.10,2013-06-10 23:07:00,
2013-06-10 17:22:00,75.1,48.0,29.53,NNE,24,13.0,18.0,38,0.00,,,0.00,weatherlink.com 1.10,2013-06-10 23:22:00,
2013-06-10 17:37:00,74.2,48.0,29.52,NNE,20,12.0,16.0,40,0.00,,,0.00,weatherlink.com 1.10,2013-06-10 23:37:00,
2013-06-10 17:52:00,74.3,48.0,29.52,NNE,26,10.0,15.0,40,0.00,,,0.00,weatherlink.com 1.10,2013-06-10 23:52:00,
2013-06-10 18:07:00,74.6,49.0,29.52,NNE,24,13.0,17.0,41,0.00,,,0.00,weatherlink.com 1.10,2013-06-11 00:07:00,
2013-06-10 18:22:00,72.9,53.0,29.52,NNE,15,11.0,18.0,49,0.00,,,0.00,weatherlink.com 1.10,2013-06-11 00:22:00,
2013-06-10 18:37:00,72.4,53.0,29.52,NNE,17,14.0,18.0,50,0.00,,,0.00,weatherlink.com 1.10,2013-06-11 00:37:00,
2013-06-10 18:52:00,72.6,52.0,29.52,NNE,17,15.0,18.0,48,0.00,,,0.00,weatherlink.com 1.10,2013-06-11 00:52:00,
2013-06-10 19:07:00,71.9,52.0,29.52,North,11,15.0,24.0,50,0.00,,,0.00,weatherlink.com 1.10,2013-06-11 01:07:00,
2013-06-10 19:22:00,71.7,51.0,29.54,NNE,14,22.0,31.0,48,0.00,,,0.00,weatherlink.com 1.10,2013-06-11 01:22:00,
2013-06-10 19:37:00,71.6,51.0,29.54,NNE,26,18.0,39.0,48,0.00,,,0.00,weatherlink.com 1.10,2013-06-11 01:37:00,
2013-06-10 19:52:00,71.2,50.0,29.54,North,11,36.0,38.0,48,0.00,,,0.00,weatherlink.com 1.10,2013-06-11 01:52:00,
2013-06-10 20:07:00,70.1,49.0,29.54,North,11,37.0,46.0,47,0.00,,,0.00,weatherlink.com 1.10,2013-06-11 02:07:00,
2013-06-10 20:22:00,68.3,49.0,29.56,North,10,26.0,41.0,50,0.00,,,0.00,weatherlink.com 1.10,2013-06-11 02:22:00,
2013-06-10 20:37:00,67.8,49.0,29.57,NNW,338,26.0,31.0,52,0.00,,,0.00,weatherlink.com 1.10,2013-06-11 02:37:00,
2013-06-10 20:52:00,67.7,49.0,29.59,North,360,13.0,27.0,52,0.00,,,0.00,weatherlink.com 1.10,2013-06-11 02:52:00,
2013-06-10 21:07:00,68.1,49.0,29.59,NNE,15,16.0,27.0,50,0.00,,,0.00,weatherlink.com 1.10,2013-06-11 03:07:00,
2013-06-10 21:22:00,67.6,49.0,29.59,North,5,14.0,21.0,52,0.00,,,0.00,weatherlink.com 1.10,2013-06-11 03:22:00,
2013-06-10 21:37:00,67.5,49.0,29.60,NNE,18,13.0,19.0,52,0.00,,,0.00,weatherlink.com 1.10,2013-06-11 03:37:00,
2013-06-10 21:52:00,67.3,49.0,29.61,NNE,18,14.0,18.0,53,0.00,,,0.00,weatherlink.com 1.10,2013-06-11 03:52:00,
2013-06-10 22:07:00,66.8,50.0,29.62,NNE,24,4.0,15.0,55,0.00,,,0.00,weatherlink.com 1.10,2013-06-11 04:07:00,
2013-06-10 22:22:00,64.9,50.0,29.61,NE,34,4.0,6.0,58,0.00,,,0.00,weatherlink.com 1.10,2013-06-11 04:22:00,
2013-06-10 22:37:00,66.2,50.0,29.61,NNE,29,5.0,9.0,56,0.00,,,0.00,weatherlink.com 1.10,2013-06-11 04:37:00,
2013-06-10 22:52:00,63.6,50.0,29.62,SE,144,5.0,8.0,61,0.00,,,0.00,weatherlink.com 1.10,2013-06-11 04:52:00,
2013-06-10 23:07:00,64.4,49.0,29.62,South,177,0.0,11.0,58,0.00,,,0.00,weatherlink.com 1.10,2013-06-11 05:07:00,
2013-06-10 23:22:00,63.7,49.0,29.62,SSW,196,7.0,8.0,59,0.00,,,0.00,weatherlink.com 1.10,2013-06-11 05:22:00,
2013-06-10 23:37:00,62.4,49.0,29.62,SSW,196,6.0,8.0,62,0.00,,,0.00,weatherlink.com 1.10,2013-06-11 05:37:00,
2013-06-10 23:52:00,61.4,49.0,29.62,SSW,196,2.0,7.0,64,0.00,,,0.00,weatherlink.com 1.10,2013-06-11 05:52:00,